createdAt,value
2017-10-09T00:00:17.839Z,919.17
2017-10-09T00:00:45.876Z,919.18
2017-10-09T00:01:14.613Z,919.15
2017-10-09T00:01:42.564Z,919.17
2017-10-09T00:02:10.520Z,919.19
2017-10-09T00:02:38.374Z,919.15
2017-10-09T00:03:06.327Z,919.2
2017-10-09T00:03:34.275Z,919.18
2017-10-09T00:04:02.225Z,919.15
2017-10-09T00:04:30.969Z,919.21
2017-10-09T00:04:59.706Z,919.15
2017-10-09T00:05:27.560Z,919.15
2017-10-09T00:05:55.621Z,919.17
2017-10-09T00:06:24.365Z,919.16
2017-10-09T00:06:52.317Z,919.15
2017-10-09T00:07:21.860Z,919.15
2017-10-09T00:07:50.615Z,919.17
2017-10-09T00:08:19.342Z,919.18
2017-10-09T00:08:47.294Z,919.17
2017-10-09T00:09:16.829Z,919.18
2017-10-09T00:09:44.787Z,919.18
2017-10-09T00:10:12.652Z,919.19
2017-10-09T00:10:41.647Z,919.17
2017-10-09T00:11:09.497Z,919.19
2017-10-09T00:11:38.252Z,919.22
2017-10-09T00:12:06.992Z,919.2
2017-10-09T00:12:34.938Z,919.19
2017-10-09T00:13:03.664Z,919.23
2017-10-09T00:13:31.603Z,919.16
2017-10-09T00:14:01.930Z,919.18
2017-10-09T00:14:29.856Z,919.21
2017-10-09T00:14:57.690Z,919.17
2017-10-09T00:15:25.666Z,919.15
2017-10-09T00:15:53.721Z,919.13
2017-10-09T00:16:22.453Z,919.11
2017-10-09T00:16:51.199Z,919.13
2017-10-09T00:17:19.054Z,919.15
2017-10-09T00:17:48.590Z,919.11
2017-10-09T00:18:17.344Z,919.13
2017-10-09T00:18:46.092Z,919.09
2017-10-09T00:19:14.084Z,919.09
2017-10-09T00:19:42.049Z,919.13
2017-10-09T00:20:10.008Z,919.13
2017-10-09T00:20:37.862Z,919.12
2017-10-09T00:21:06.694Z,919.14
2017-10-09T00:21:35.440Z,919.14
2017-10-09T00:22:04.978Z,919.14
2017-10-09T00:22:32.830Z,919.17
2017-10-09T00:23:01.564Z,919.15
2017-10-09T00:23:31.895Z,919.16
2017-10-09T00:23:59.754Z,919.13
2017-10-09T00:24:27.710Z,919.12
2017-10-09T00:24:56.478Z,919.11
2017-10-09T00:25:25.225Z,919.12
2017-10-09T00:25:53.324Z,919.14
2017-10-09T00:26:21.256Z,919.1
2017-10-09T00:26:49.216Z,919.13
2017-10-09T00:27:17.866Z,919.08
2017-10-09T00:27:47.309Z,919.09
2017-10-09T00:28:54.270Z,919.08
2017-10-09T00:29:22.225Z,919.09
2017-10-09T00:29:50.181Z,919.07
2017-10-09T00:30:19.719Z,919.08
2017-10-09T00:30:48.461Z,919.08
2017-10-09T00:31:17.213Z,919.06
2017-10-09T00:31:45.969Z,919.06
2017-10-09T00:32:14.724Z,919
2017-10-09T00:32:42.675Z,919.01
2017-10-09T00:33:10.623Z,919.02
2017-10-09T00:33:38.566Z,918.96
2017-10-09T00:34:06.424Z,918.96
2017-10-09T00:34:35.182Z,918.99
2017-10-09T00:35:03.135Z,918.94
2017-10-09T00:35:30.968Z,918.95
2017-10-09T00:35:59.020Z,918.92
2017-10-09T00:36:26.967Z,918.92
2017-10-09T00:36:54.930Z,918.93
2017-10-09T00:37:23.683Z,918.96
2017-10-09T00:37:51.635Z,918.96
2017-10-09T00:38:20.381Z,918.94
2017-10-09T00:38:48.247Z,918.94
2017-10-09T00:39:16.897Z,918.92
2017-10-09T00:39:44.853Z,918.94
2017-10-09T00:40:12.803Z,918.96
2017-10-09T00:40:40.754Z,918.98
2017-10-09T00:41:09.261Z,918.95
2017-10-09T00:41:37.211Z,918.96
2017-10-09T00:42:05.158Z,918.96
2017-10-09T00:42:33.103Z,918.98
2017-10-09T00:43:01.043Z,918.99
2017-10-09T00:43:28.898Z,919
2017-10-09T00:43:56.764Z,918.99
2017-10-09T00:44:24.704Z,918.96
2017-10-09T00:44:53.349Z,918.99
2017-10-09T00:45:21.313Z,919.01
2017-10-09T00:45:50.047Z,919.01
2017-10-09T00:46:18.013Z,918.98
2017-10-09T00:46:45.981Z,918.96
2017-10-09T00:47:13.850Z,918.95
2017-10-09T00:47:41.784Z,918.95
2017-10-09T00:48:10.530Z,918.96
2017-10-09T00:48:39.267Z,918.93
2017-10-09T00:49:07.211Z,918.94
2017-10-09T00:49:35.956Z,918.96
2017-10-09T00:50:03.903Z,918.94
2017-10-09T00:50:32.637Z,918.94
2017-10-09T00:51:00.696Z,918.94
2017-10-09T00:51:30.226Z,918.9
2017-10-09T00:51:58.966Z,918.92
2017-10-09T00:52:26.902Z,918.92
2017-10-09T00:52:55.637Z,918.88
2017-10-09T00:53:25.170Z,918.89
2017-10-09T00:53:53.005Z,918.9
2017-10-09T00:54:21.730Z,918.88
2017-10-09T00:54:49.709Z,918.85
2017-10-09T00:55:17.568Z,918.91
2017-10-09T00:55:45.504Z,918.87
2017-10-09T00:56:13.715Z,918.91
2017-10-09T00:56:41.572Z,918.88
2017-10-09T00:57:09.517Z,918.89
2017-10-09T00:57:38.261Z,918.85
2017-10-09T00:58:06.911Z,918.84
2017-10-09T00:58:35.562Z,918.85
2017-10-09T00:59:03.430Z,918.84
2017-10-09T00:59:31.396Z,918.87
2017-10-09T01:00:00.919Z,918.83
2017-10-09T01:00:28.877Z,918.86
2017-10-09T01:00:56.742Z,918.84
2017-10-09T01:01:26.382Z,918.83
2017-10-09T01:01:55.924Z,918.84
2017-10-09T01:02:24.666Z,918.86
2017-10-09T01:02:52.640Z,918.86
2017-10-09T01:03:20.594Z,918.84
2017-10-09T01:03:48.452Z,918.87
2017-10-09T01:04:17.223Z,918.89
2017-10-09T01:04:45.156Z,918.91
2017-10-09T01:05:13.167Z,918.91
2017-10-09T01:05:41.107Z,918.88
2017-10-09T01:06:09.964Z,918.84
2017-10-09T01:06:37.738Z,918.84
2017-10-09T01:07:06.480Z,918.87
2017-10-09T01:08:14.317Z,918.85
2017-10-09T01:08:42.259Z,918.83
2017-10-09T01:09:11.006Z,918.85
2017-10-09T01:09:39.756Z,918.85
2017-10-09T01:10:07.713Z,918.85
2017-10-09T01:10:35.675Z,918.85
2017-10-09T01:11:03.638Z,918.83
2017-10-09T01:11:32.648Z,918.83
2017-10-09T01:12:02.196Z,918.82
2017-10-09T01:12:30.057Z,918.78
2017-10-09T01:12:57.902Z,918.81
2017-10-09T01:13:26.649Z,918.77
2017-10-09T01:13:54.615Z,918.82
2017-10-09T01:14:22.453Z,918.82
2017-10-09T01:14:50.490Z,918.75
2017-10-09T01:15:19.233Z,918.76
2017-10-09T01:15:47.183Z,918.77
2017-10-09T01:16:15.946Z,918.79
2017-10-09T01:16:43.921Z,918.72
2017-10-09T01:17:11.788Z,918.73
2017-10-09T01:17:40.433Z,918.75
2017-10-09T01:18:09.103Z,918.68
2017-10-09T01:18:37.846Z,918.7
2017-10-09T01:19:05.803Z,918.68
2017-10-09T01:19:35.339Z,918.66
2017-10-09T01:20:03.984Z,918.65
2017-10-09T01:20:31.933Z,918.65
2017-10-09T01:21:00.695Z,918.66
2017-10-09T01:21:28.741Z,918.66
2017-10-09T01:21:56.698Z,918.67
2017-10-09T01:22:24.661Z,918.64
2017-10-09T01:22:53.321Z,918.7
2017-10-09T01:23:21.285Z,918.66
2017-10-09T01:23:49.222Z,918.62
2017-10-09T01:24:17.961Z,918.65
2017-10-09T01:24:46.736Z,918.63
2017-10-09T01:25:14.691Z,918.65
2017-10-09T01:25:43.437Z,918.65
2017-10-09T01:26:11.400Z,918.65
2017-10-09T01:26:40.305Z,918.65
2017-10-09T01:27:08.061Z,918.66
2017-10-09T01:27:35.994Z,918.67
2017-10-09T01:28:03.845Z,918.66
2017-10-09T01:28:31.717Z,918.7
2017-10-09T01:29:00.460Z,918.68
2017-10-09T01:29:28.410Z,918.7
2017-10-09T01:29:56.267Z,918.72
2017-10-09T01:30:24.136Z,918.7
2017-10-09T01:30:52.789Z,918.73
2017-10-09T01:31:21.528Z,918.7
2017-10-09T01:31:49.380Z,918.7
2017-10-09T01:32:18.123Z,918.73
2017-10-09T01:32:47.664Z,918.75
2017-10-09T01:33:15.592Z,918.73
2017-10-09T01:33:43.426Z,918.77
2017-10-09T01:34:11.403Z,918.76
2017-10-09T01:34:39.260Z,918.77
2017-10-09T01:35:07.199Z,918.78
2017-10-09T01:35:35.948Z,918.77
2017-10-09T01:36:03.897Z,918.81
2017-10-09T01:36:31.941Z,918.78
2017-10-09T01:37:00.688Z,918.8
2017-10-09T01:37:28.638Z,918.8
2017-10-09T01:37:57.381Z,918.77
2017-10-09T01:38:25.289Z,918.78
2017-10-09T01:38:54.055Z,918.72
2017-10-09T01:39:22.789Z,918.73
2017-10-09T01:39:51.430Z,918.69
2017-10-09T01:40:19.401Z,918.69
2017-10-09T01:40:47.361Z,918.68
2017-10-09T01:41:15.134Z,918.67
2017-10-09T01:41:43.137Z,918.62
2017-10-09T01:42:12.677Z,918.62
2017-10-09T01:42:40.541Z,918.6
2017-10-09T01:43:08.496Z,918.62
2017-10-09T01:43:36.460Z,918.61
2017-10-09T01:44:06.008Z,918.6
2017-10-09T01:44:33.958Z,918.56
2017-10-09T01:45:01.807Z,918.55
2017-10-09T01:45:29.695Z,918.56
2017-10-09T01:45:58.442Z,918.57
2017-10-09T01:46:26.400Z,918.53
2017-10-09T01:47:32.749Z,918.55
2017-10-09T01:48:02.292Z,918.55
2017-10-09T01:48:30.944Z,918.51
2017-10-09T01:48:59.696Z,918.53
2017-10-09T01:49:27.463Z,918.49
2017-10-09T01:49:55.425Z,918.49
2017-10-09T01:50:23.393Z,918.54
2017-10-09T01:50:51.358Z,918.45
2017-10-09T01:51:19.316Z,918.44
2017-10-09T01:51:47.361Z,918.44
2017-10-09T01:52:15.209Z,918.41
2017-10-09T01:52:43.156Z,918.42
2017-10-09T01:53:11.103Z,918.39
2017-10-09T01:53:39.048Z,918.37
2017-10-09T01:54:06.695Z,918.32
2017-10-09T01:54:35.257Z,918.28
2017-10-09T01:55:03.901Z,918.25
2017-10-09T01:55:31.871Z,918.22
2017-10-09T01:55:59.730Z,918.2
2017-10-09T01:56:27.691Z,918.2
2017-10-09T01:56:55.846Z,918.21
2017-10-09T01:57:23.813Z,918.21
2017-10-09T01:57:51.766Z,918.2
2017-10-09T01:58:19.718Z,918.18
2017-10-09T01:58:48.447Z,918.19
2017-10-09T01:59:16.390Z,918.16
2017-10-09T01:59:45.026Z,918.17
2017-10-09T02:00:13.779Z,918.15
2017-10-09T02:00:41.729Z,918.15
2017-10-09T02:01:09.601Z,918.14
2017-10-09T02:01:37.551Z,918.15
2017-10-09T02:02:05.611Z,918.18
2017-10-09T02:02:35.150Z,918.14
2017-10-09T02:03:03.091Z,918.16
2017-10-09T02:03:31.037Z,918.15
2017-10-09T02:03:59.017Z,918.17
2017-10-09T02:04:26.969Z,918.15
2017-10-09T02:04:54.924Z,918.15
2017-10-09T02:05:23.680Z,918.16
2017-10-09T02:05:53.232Z,918.17
2017-10-09T02:06:21.164Z,918.11
2017-10-09T02:06:49.011Z,918.13
2017-10-09T02:07:16.954Z,918.11
2017-10-09T02:07:44.812Z,918.11
2017-10-09T02:08:13.557Z,918.1
2017-10-09T02:08:42.292Z,918.15
2017-10-09T02:09:10.231Z,918.17
2017-10-09T02:09:38.893Z,918.18
2017-10-09T02:10:06.752Z,918.14
2017-10-09T02:10:36.188Z,918.18
2017-10-09T02:11:04.126Z,918.15
2017-10-09T02:11:33.658Z,918.16
2017-10-09T02:12:02.647Z,918.19
2017-10-09T02:12:31.366Z,918.18
2017-10-09T02:12:59.303Z,918.19
2017-10-09T02:13:27.974Z,918.2
2017-10-09T02:13:55.841Z,918.19
2017-10-09T02:14:24.567Z,918.21
2017-10-09T02:14:53.339Z,918.2
2017-10-09T02:15:22.085Z,918.25
2017-10-09T02:15:50.872Z,918.25
2017-10-09T02:16:18.826Z,918.24
2017-10-09T02:16:46.929Z,918.19
2017-10-09T02:17:14.792Z,918.24
2017-10-09T02:17:42.753Z,918.24
2017-10-09T02:18:10.717Z,918.23
2017-10-09T02:18:38.673Z,918.25
2017-10-09T02:19:06.626Z,918.23
2017-10-09T02:19:34.484Z,918.26
2017-10-09T02:20:03.232Z,918.2
2017-10-09T02:20:32.677Z,918.18
2017-10-09T02:21:01.414Z,918.21
2017-10-09T02:21:30.061Z,918.2
2017-10-09T02:21:58.120Z,918.2
2017-10-09T02:22:26.090Z,918.17
2017-10-09T02:22:54.849Z,918.19
2017-10-09T02:23:22.799Z,918.15
2017-10-09T02:23:52.231Z,918.15
2017-10-09T02:24:20.163Z,918.16
2017-10-09T02:24:48.913Z,918.16
2017-10-09T02:25:16.862Z,918.14
2017-10-09T02:25:44.727Z,918.12
2017-10-09T02:26:52.024Z,918.09
2017-10-09T02:27:21.553Z,918.13
2017-10-09T02:27:49.501Z,918.16
2017-10-09T02:28:18.247Z,918.14
2017-10-09T02:28:46.994Z,918.12
2017-10-09T02:29:14.971Z,918.14
2017-10-09T02:29:42.942Z,918.08
2017-10-09T02:30:11.695Z,918.12
2017-10-09T02:30:40.444Z,918.1
2017-10-09T02:31:08.397Z,918.07
2017-10-09T02:31:37.127Z,918.07
2017-10-09T02:32:05.238Z,918.07
2017-10-09T02:32:33.086Z,918.06
2017-10-09T02:33:01.039Z,918.07
2017-10-09T02:33:28.967Z,918.04
2017-10-09T02:33:57.708Z,918.02
2017-10-09T02:34:25.467Z,918.04
2017-10-09T02:34:53.425Z,917.99
2017-10-09T02:35:22.168Z,918.02
2017-10-09T02:35:50.033Z,918.01
2017-10-09T02:36:19.567Z,918
2017-10-09T02:36:48.313Z,918.02
2017-10-09T02:37:17.158Z,918.02
2017-10-09T02:37:45.905Z,918.01
2017-10-09T02:38:14.645Z,918.03
2017-10-09T02:38:43.285Z,918
2017-10-09T02:39:12.024Z,918.01
2017-10-09T02:39:39.983Z,918
2017-10-09T02:40:08.722Z,918.01
2017-10-09T02:40:36.579Z,918
2017-10-09T02:41:05.322Z,917.97
2017-10-09T02:41:34.073Z,917.94
2017-10-09T02:42:02.284Z,917.97
2017-10-09T02:42:30.226Z,917.92
2017-10-09T02:42:58.179Z,917.94
2017-10-09T02:43:26.931Z,917.91
2017-10-09T02:43:55.668Z,917.9
2017-10-09T02:44:24.320Z,917.93
2017-10-09T02:44:52.278Z,917.91
2017-10-09T02:45:20.231Z,917.89
2017-10-09T02:45:48.158Z,917.86
2017-10-09T02:46:16.108Z,917.87
2017-10-09T02:46:44.064Z,917.86
2017-10-09T02:47:12.027Z,917.88
2017-10-09T02:47:40.776Z,917.84
2017-10-09T02:48:08.722Z,917.84
2017-10-09T02:48:37.455Z,917.8
2017-10-09T02:49:05.417Z,917.81
2017-10-09T02:49:34.163Z,917.82
2017-10-09T02:50:02.026Z,917.82
2017-10-09T02:50:29.875Z,917.78
2017-10-09T02:50:58.610Z,917.79
2017-10-09T02:51:27.359Z,917.78
2017-10-09T02:51:56.069Z,917.78
2017-10-09T02:52:24.095Z,917.77
2017-10-09T02:52:51.976Z,917.72
2017-10-09T02:53:19.923Z,917.75
2017-10-09T02:53:47.862Z,917.75
2017-10-09T02:54:15.729Z,917.71
2017-10-09T02:54:43.671Z,917.71
2017-10-09T02:55:11.520Z,917.72
2017-10-09T02:55:39.478Z,917.73
2017-10-09T02:56:09.015Z,917.71
2017-10-09T02:56:37.755Z,917.74
2017-10-09T02:57:06.707Z,917.7
2017-10-09T02:57:34.671Z,917.74
2017-10-09T02:58:02.618Z,917.71
2017-10-09T02:58:30.471Z,917.71
2017-10-09T02:58:58.331Z,917.68
2017-10-09T02:59:27.074Z,917.71
2017-10-09T02:59:55.032Z,917.67
2017-10-09T03:00:22.885Z,917.65
2017-10-09T03:00:50.845Z,917.66
2017-10-09T03:01:18.805Z,917.66
2017-10-09T03:01:46.666Z,917.66
2017-10-09T03:02:15.517Z,917.6
2017-10-09T03:02:43.481Z,917.68
2017-10-09T03:03:12.237Z,917.66
2017-10-09T03:03:40.175Z,917.69
2017-10-09T03:04:09.725Z,917.64
2017-10-09T03:04:37.671Z,917.66
2017-10-09T03:05:05.616Z,917.64
2017-10-09T03:06:12.661Z,917.62
2017-10-09T03:06:41.403Z,917.58
2017-10-09T03:07:10.149Z,917.62
2017-10-09T03:07:38.108Z,917.59
2017-10-09T03:08:06.061Z,917.61
2017-10-09T03:08:34.811Z,917.61
2017-10-09T03:09:02.794Z,917.56
2017-10-09T03:09:30.752Z,917.55
2017-10-09T03:09:59.507Z,917.54
2017-10-09T03:10:27.457Z,917.53
2017-10-09T03:10:55.391Z,917.5
2017-10-09T03:11:24.136Z,917.54
2017-10-09T03:11:52.869Z,917.55
2017-10-09T03:12:20.972Z,917.51
2017-10-09T03:12:48.908Z,917.5
2017-10-09T03:13:17.557Z,917.49
2017-10-09T03:13:45.495Z,917.54
2017-10-09T03:14:14.946Z,917.54
2017-10-09T03:14:42.896Z,917.55
2017-10-09T03:15:10.853Z,917.53
2017-10-09T03:15:38.806Z,917.52
2017-10-09T03:16:07.560Z,917.52
2017-10-09T03:16:35.518Z,917.48
2017-10-09T03:17:04.168Z,917.48
2017-10-09T03:17:32.912Z,917.46
2017-10-09T03:18:00.853Z,917.42
2017-10-09T03:18:28.794Z,917.44
2017-10-09T03:18:57.545Z,917.42
2017-10-09T03:19:25.402Z,917.45
2017-10-09T03:19:53.261Z,917.46
2017-10-09T03:20:22.795Z,917.48
2017-10-09T03:20:50.753Z,917.45
2017-10-09T03:21:20.288Z,917.5
2017-10-09T03:21:48.221Z,917.45
2017-10-09T03:22:16.173Z,917.48
2017-10-09T03:22:44.128Z,917.45
2017-10-09T03:23:12.784Z,917.47
2017-10-09T03:23:40.734Z,917.45
2017-10-09T03:24:08.602Z,917.49
2017-10-09T03:24:36.556Z,917.5
2017-10-09T03:25:04.492Z,917.45
2017-10-09T03:25:32.432Z,917.46
2017-10-09T03:26:00.285Z,917.45
2017-10-09T03:26:29.032Z,917.42
2017-10-09T03:26:56.969Z,917.39
2017-10-09T03:27:25.116Z,917.39
2017-10-09T03:27:53.059Z,917.42
2017-10-09T03:28:21.020Z,917.38
2017-10-09T03:28:48.972Z,917.4
2017-10-09T03:29:17.722Z,917.4
2017-10-09T03:29:45.657Z,917.4
2017-10-09T03:30:13.510Z,917.39
2017-10-09T03:30:41.369Z,917.38
2017-10-09T03:31:09.296Z,917.38
2017-10-09T03:31:37.222Z,917.35
2017-10-09T03:32:05.190Z,917.39
2017-10-09T03:32:33.245Z,917.39
2017-10-09T03:33:01.091Z,917.4
2017-10-09T03:33:29.051Z,917.39
2017-10-09T03:33:57.003Z,917.4
2017-10-09T03:34:24.951Z,917.42
2017-10-09T03:34:52.903Z,917.42
2017-10-09T03:35:20.854Z,917.42
2017-10-09T03:35:49.596Z,917.37
2017-10-09T03:36:17.369Z,917.38
2017-10-09T03:36:45.332Z,917.34
2017-10-09T03:37:13.279Z,917.34
2017-10-09T03:37:42.922Z,917.32
2017-10-09T03:38:10.870Z,917.33
2017-10-09T03:38:39.528Z,917.26
2017-10-09T03:39:07.401Z,917.28
2017-10-09T03:39:35.334Z,917.27
2017-10-09T03:40:03.296Z,917.26
2017-10-09T03:40:31.248Z,917.27
2017-10-09T03:40:59.106Z,917.18
2017-10-09T03:41:27.059Z,917.2
2017-10-09T03:41:55.009Z,917.17
2017-10-09T03:42:23.104Z,917.22
2017-10-09T03:42:50.956Z,917.2
2017-10-09T03:43:20.488Z,917.18
2017-10-09T03:43:49.160Z,917.21
2017-10-09T03:44:17.034Z,917.18
2017-10-09T03:45:23.196Z,917.22
2017-10-09T03:45:51.140Z,917.23
2017-10-09T03:46:19.093Z,917.22
2017-10-09T03:46:47.650Z,917.23
2017-10-09T03:47:16.400Z,917.22
2017-10-09T03:47:44.429Z,917.25
2017-10-09T03:48:13.979Z,917.27
2017-10-09T03:48:41.940Z,917.26
2017-10-09T03:49:09.897Z,917.34
2017-10-09T03:49:37.843Z,917.37
2017-10-09T03:50:05.777Z,917.36
2017-10-09T03:50:34.517Z,917.35
2017-10-09T03:51:02.461Z,917.37
2017-10-09T03:51:31.207Z,917.34
2017-10-09T03:51:59.927Z,917.37
2017-10-09T03:52:28.766Z,917.36
2017-10-09T03:52:57.506Z,917.34
2017-10-09T03:53:26.263Z,917.39
2017-10-09T03:53:54.232Z,917.38
2017-10-09T03:54:22.187Z,917.35
2017-10-09T03:54:50.926Z,917.34
2017-10-09T03:55:18.892Z,917.33
2017-10-09T03:55:47.545Z,917.35
2017-10-09T03:56:15.493Z,917.38
2017-10-09T03:56:44.224Z,917.41
2017-10-09T03:57:12.182Z,917.4
2017-10-09T03:57:40.332Z,917.4
2017-10-09T03:58:08.286Z,917.44
2017-10-09T03:58:36.242Z,917.39
2017-10-09T03:59:04.191Z,917.39
2017-10-09T03:59:32.847Z,917.4
2017-10-09T04:00:00.804Z,917.39
2017-10-09T04:00:30.343Z,917.43
2017-10-09T04:00:58.984Z,917.41
2017-10-09T04:01:26.846Z,917.37
2017-10-09T04:01:54.810Z,917.42
2017-10-09T04:02:24.253Z,917.41
2017-10-09T04:02:52.304Z,917.42
2017-10-09T04:03:20.264Z,917.42
2017-10-09T04:03:48.914Z,917.45
2017-10-09T04:04:16.848Z,917.48
2017-10-09T04:04:45.598Z,917.49
2017-10-09T04:05:13.452Z,917.49
2017-10-09T04:05:41.211Z,917.47
2017-10-09T04:06:09.949Z,917.5
2017-10-09T04:06:37.897Z,917.5
2017-10-09T04:07:05.837Z,917.49
2017-10-09T04:07:34.738Z,917.51
2017-10-09T04:08:03.479Z,917.5
2017-10-09T04:08:32.216Z,917.51
2017-10-09T04:09:00.151Z,917.5
2017-10-09T04:09:28.884Z,917.52
2017-10-09T04:09:57.630Z,917.51
2017-10-09T04:10:25.175Z,917.51
2017-10-09T04:10:53.005Z,917.5
2017-10-09T04:11:20.967Z,917.52
2017-10-09T04:11:48.920Z,917.51
2017-10-09T04:12:16.763Z,917.52
2017-10-09T04:12:44.877Z,917.52
2017-10-09T04:13:13.598Z,917.52
2017-10-09T04:13:41.544Z,917.5
2017-10-09T04:14:10.296Z,917.54
2017-10-09T04:14:38.250Z,917.53
2017-10-09T04:15:06.994Z,917.53
2017-10-09T04:15:34.952Z,917.55
2017-10-09T04:16:03.714Z,917.55
2017-10-09T04:16:33.245Z,917.51
2017-10-09T04:17:01.992Z,917.52
2017-10-09T04:17:30.743Z,917.56
2017-10-09T04:17:58.854Z,917.54
2017-10-09T04:18:26.716Z,917.51
2017-10-09T04:18:55.358Z,917.52
2017-10-09T04:19:24.909Z,917.51
2017-10-09T04:19:52.860Z,917.52
2017-10-09T04:20:20.808Z,917.53
2017-10-09T04:20:50.356Z,917.51
2017-10-09T04:21:18.222Z,917.51
2017-10-09T04:21:46.167Z,917.52
2017-10-09T04:22:14.105Z,917.53
2017-10-09T04:22:42.162Z,917.49
2017-10-09T04:23:10.110Z,917.5
2017-10-09T04:23:39.646Z,917.51
2017-10-09T04:24:45.902Z,917.51
2017-10-09T04:25:13.850Z,917.48
2017-10-09T04:25:41.717Z,917.48
2017-10-09T04:26:09.575Z,917.49
2017-10-09T04:26:37.524Z,917.49
2017-10-09T04:27:05.290Z,917.49
2017-10-09T04:27:34.051Z,917.49
2017-10-09T04:28:03.838Z,917.48
2017-10-09T04:28:33.371Z,917.49
2017-10-09T04:29:02.109Z,917.51
2017-10-09T04:29:30.836Z,917.49
2017-10-09T04:29:58.780Z,917.54
2017-10-09T04:30:26.724Z,917.51
2017-10-09T04:30:54.685Z,917.51
2017-10-09T04:31:22.614Z,917.54
2017-10-09T04:31:51.349Z,917.54
2017-10-09T04:32:19.287Z,917.54
2017-10-09T04:32:47.352Z,917.53
2017-10-09T04:33:16.792Z,917.51
2017-10-09T04:33:44.741Z,917.5
2017-10-09T04:34:12.690Z,917.48
2017-10-09T04:34:40.652Z,917.49
2017-10-09T04:35:09.308Z,917.47
2017-10-09T04:35:37.252Z,917.48
2017-10-09T04:36:05.092Z,917.47
2017-10-09T04:36:33.834Z,917.5
2017-10-09T04:37:01.776Z,917.46
2017-10-09T04:37:29.730Z,917.49
2017-10-09T04:37:57.688Z,917.47
2017-10-09T04:38:25.644Z,917.52
2017-10-09T04:38:54.287Z,917.51
2017-10-09T04:39:23.826Z,917.51
2017-10-09T04:39:52.577Z,917.5
2017-10-09T04:40:20.515Z,917.51
2017-10-09T04:40:48.460Z,917.49
2017-10-09T04:41:16.416Z,917.48
2017-10-09T04:41:44.279Z,917.47
2017-10-09T04:42:12.232Z,917.47
2017-10-09T04:42:40.090Z,917.48
2017-10-09T04:43:08.114Z,917.48
2017-10-09T04:43:36.049Z,917.44
2017-10-09T04:44:04.785Z,917.47
2017-10-09T04:44:34.322Z,917.45
2017-10-09T04:45:03.066Z,917.47
2017-10-09T04:45:31.022Z,917.44
2017-10-09T04:45:58.964Z,917.48
2017-10-09T04:46:27.622Z,917.45
2017-10-09T04:46:56.968Z,917.47
2017-10-09T04:47:24.917Z,917.47
2017-10-09T04:47:54.451Z,917.5
2017-10-09T04:48:22.537Z,917.48
2017-10-09T04:48:50.486Z,917.51
2017-10-09T04:49:19.143Z,917.5
2017-10-09T04:49:47.858Z,917.49
2017-10-09T04:50:15.785Z,917.47
2017-10-09T04:50:44.457Z,917.5
2017-10-09T04:51:12.400Z,917.51
2017-10-09T04:51:41.128Z,917.48
2017-10-09T04:52:09.086Z,917.51
2017-10-09T04:52:37.034Z,917.49
2017-10-09T04:53:05.084Z,917.52
2017-10-09T04:53:32.939Z,917.52
2017-10-09T04:54:00.904Z,917.52
2017-10-09T04:54:29.456Z,917.53
2017-10-09T04:54:57.379Z,917.53
2017-10-09T04:55:25.341Z,917.54
2017-10-09T04:55:54.072Z,917.58
2017-10-09T04:56:23.609Z,917.53
2017-10-09T04:56:51.556Z,917.56
2017-10-09T04:57:20.301Z,917.56
2017-10-09T04:57:49.747Z,917.59
2017-10-09T04:58:17.937Z,917.54
2017-10-09T04:58:45.895Z,917.53
2017-10-09T04:59:13.760Z,917.53
2017-10-09T04:59:42.513Z,917.55
2017-10-09T05:00:10.370Z,917.55
2017-10-09T05:00:39.116Z,917.52
2017-10-09T05:01:07.051Z,917.51
2017-10-09T05:01:34.990Z,917.48
2017-10-09T05:02:02.936Z,917.48
2017-10-09T05:02:31.680Z,917.5
2017-10-09T05:03:00.526Z,917.45
2017-10-09T05:04:06.777Z,917.5
2017-10-09T05:04:34.720Z,917.48
2017-10-09T05:05:04.161Z,917.47
2017-10-09T05:05:32.024Z,917.47
2017-10-09T05:05:59.981Z,917.45
2017-10-09T05:06:27.849Z,917.42
2017-10-09T05:06:56.604Z,917.44
2017-10-09T05:07:24.462Z,917.42
2017-10-09T05:07:53.205Z,917.43
2017-10-09T05:08:21.250Z,917.43
2017-10-09T05:08:50.762Z,917.43
2017-10-09T05:09:20.288Z,917.4
2017-10-09T05:09:48.167Z,917.35
2017-10-09T05:10:16.092Z,917.4
2017-10-09T05:10:44.721Z,917.39
2017-10-09T05:11:12.667Z,917.39
2017-10-09T05:11:41.399Z,917.33
2017-10-09T05:12:09.363Z,917.36
2017-10-09T05:12:38.124Z,917.35
2017-10-09T05:13:07.030Z,917.37
2017-10-09T05:13:34.979Z,917.36
2017-10-09T05:14:02.937Z,917.36
2017-10-09T05:14:30.799Z,917.36
2017-10-09T05:14:58.657Z,917.34
2017-10-09T05:15:26.516Z,917.34
2017-10-09T05:15:54.359Z,917.36
2017-10-09T05:16:22.302Z,917.38
2017-10-09T05:16:51.046Z,917.39
2017-10-09T05:17:18.999Z,917.38
2017-10-09T05:17:46.957Z,917.39
2017-10-09T05:18:14.920Z,917.38
2017-10-09T05:18:42.882Z,917.37
2017-10-09T05:19:10.839Z,917.36
2017-10-09T05:19:39.569Z,917.35
2017-10-09T05:20:08.308Z,917.35
2017-10-09T05:20:37.053Z,917.34
2017-10-09T05:21:05.794Z,917.35
2017-10-09T05:21:33.747Z,917.32
2017-10-09T05:22:01.709Z,917.3
2017-10-09T05:22:30.274Z,917.32
2017-10-09T05:22:58.213Z,917.31
2017-10-09T05:23:26.247Z,917.32
2017-10-09T05:23:54.090Z,917.32
2017-10-09T05:24:22.032Z,917.32
2017-10-09T05:24:49.980Z,917.32
2017-10-09T05:25:17.926Z,917.33
2017-10-09T05:25:45.867Z,917.32
2017-10-09T05:26:14.531Z,917.29
2017-10-09T05:26:43.275Z,917.31
2017-10-09T05:27:11.221Z,917.31
2017-10-09T05:27:40.749Z,917.29
2017-10-09T05:28:10.580Z,917.36
2017-10-09T05:28:39.233Z,917.36
2017-10-09T05:29:07.866Z,917.34
2017-10-09T05:29:35.792Z,917.34
2017-10-09T05:30:03.764Z,917.32
2017-10-09T05:30:31.714Z,917.35
2017-10-09T05:31:01.237Z,917.33
2017-10-09T05:31:29.982Z,917.38
2017-10-09T05:31:58.728Z,917.35
2017-10-09T05:32:26.677Z,917.35
2017-10-09T05:32:55.354Z,917.33
2017-10-09T05:33:23.426Z,917.35
2017-10-09T05:33:52.157Z,917.33
2017-10-09T05:34:20.027Z,917.29
2017-10-09T05:34:47.993Z,917.34
2017-10-09T05:35:16.733Z,917.31
2017-10-09T05:35:44.580Z,917.32
2017-10-09T05:36:12.435Z,917.32
2017-10-09T05:36:40.384Z,917.33
2017-10-09T05:37:08.338Z,917.34
2017-10-09T05:37:36.094Z,917.33
2017-10-09T05:38:03.956Z,917.34
2017-10-09T05:38:32.798Z,917.37
2017-10-09T05:39:01.544Z,917.36
2017-10-09T05:39:29.409Z,917.32
2017-10-09T05:39:58.053Z,917.3
2017-10-09T05:40:25.994Z,917.3
2017-10-09T05:40:54.722Z,917.32
2017-10-09T05:41:23.470Z,917.27
2017-10-09T05:41:51.423Z,917.25
2017-10-09T05:42:19.280Z,917.29
2017-10-09T05:43:26.574Z,917.28
2017-10-09T05:43:55.222Z,917.24
2017-10-09T05:44:23.174Z,917.23
2017-10-09T05:44:50.845Z,917.22
2017-10-09T05:45:19.585Z,917.2
2017-10-09T05:45:47.535Z,917.21
2017-10-09T05:46:16.198Z,917.21
2017-10-09T05:46:44.949Z,917.21
2017-10-09T05:47:14.481Z,917.17
2017-10-09T05:47:42.336Z,917.22
2017-10-09T05:48:10.275Z,917.2
2017-10-09T05:48:38.279Z,917.19
2017-10-09T05:49:07.008Z,917.16
2017-10-09T05:49:35.660Z,917.16
2017-10-09T05:50:03.299Z,917.18
2017-10-09T05:50:31.243Z,917.16
2017-10-09T05:50:59.885Z,917.18
2017-10-09T05:51:27.757Z,917.1
2017-10-09T05:51:56.497Z,917.14
2017-10-09T05:52:25.236Z,917.1
2017-10-09T05:52:53.890Z,917.12
2017-10-09T05:53:22.652Z,917.13
2017-10-09T05:53:50.506Z,917.09
2017-10-09T05:54:18.453Z,917.09
2017-10-09T05:54:46.208Z,917.09
2017-10-09T05:55:14.056Z,917.05
2017-10-09T05:55:42.000Z,917.09
2017-10-09T05:56:10.651Z,917.04
2017-10-09T05:56:38.608Z,917.04
2017-10-09T05:57:07.356Z,917.01
2017-10-09T05:57:35.213Z,917.03
2017-10-09T05:58:03.964Z,917.06
2017-10-09T05:58:32.178Z,917.03
2017-10-09T05:59:00.126Z,917.01
2017-10-09T05:59:28.077Z,917.03
2017-10-09T05:59:56.037Z,917
2017-10-09T06:00:24.680Z,917